Terminal Aerodrome Forecast
Issued by NWS Cleveland, OH

Home | Current Version | Previous Version | Text Only | Print | Product List | Glossary Off
Versions: 1 2 3 4 5 6 7 8 9 10 11 12 13 14 15 16

844
FTUS41 KCLE 130016 AAA
TAFMFD
TAF AMD
KMFD 130016Z 1300/1324 29012G20KT 6SM -SHSN BKN045
      TEMPO 1300/1304 2SM -SHSN BLSN
     FM130700 30012G22KT P6SM VCSH BKN035
     FM131200 30010KT P6SM SCT035
     FM131500 30010G18KT P6SM BKN025=

USA.gov is the U.S. government's official web portal to all federal, state and local government web resources and services.